Back to Top

Language: 

My Weather Underground Personal Weather Station Historical Data with Graphs...

Delerius Weather Station Historical Data
Daily Summary for October 18, 2017 Units:  Metric    English   Both
« Previous Day
Next Day »
Daily Weekly Monthly Yearly Custom
  High: Low: Average:
Temperature: 12.9 °C 7.2 °C 10.6 °C
Dew Point: 10.3 °C 6 °C 8.1 °C
Humidity: 96 % 71 % 85 %
Wind Speed: 9.7 km/h 0 km/h 2.6 km/h
Wind Gust: 19.3 km/h - -
Wind:- - ESE
Pressure: 1015.8 hPa 1008.7 hPa -
Precipitation: 0.51 mm    
Historical Graphs
 
 
Tabular Data for October 18, 2017
Time Temperature Dew Point Pressure Wind Wind Speed Wind Gust Humidity Rainfall Rate (Hourly) solar Conditions
00:04 9.3 °C 6.7 °C 1015.8 hPa Calm     84 % 0 mm 0 W/m2
00:09 9.2 °C 6.6 °C 1015.8 hPa Calm     84 % 0 mm 0 W/m2
00:14 9.2 °C 6.8 °C 1015.8 hPa Calm     85 % 0 mm 0 W/m2
00:19 9.2 °C 6.8 °C 1015.8 hPa Calm     85 % 0 mm 0 W/m2
00:24 9.2 °C 6.8 °C 1015.8 hPa Calm     85 % 0 mm 0 W/m2
00:29 9.2 °C 6.8 °C 1015.8 hPa Calm     85 % 0 mm 0 W/m2
00:34 9.2 °C 6.8 °C 1015.8 hPa Calm   1.6 km/h 85 % 0 mm 0 W/m2
00:39 9.2 °C 6.8 °C 1015.8 hPa Calm   3.2 km/h 85 % 0 mm 0 W/m2
00:44 9.2 °C 6.8 °C 1015.8 hPa Calm   3.2 km/h 85 % 0 mm 0 W/m2
00:49 9.2 °C 6.8 °C 1015.8 hPa Calm     85 % 0 mm 0 W/m2
00:54 9.2 °C 6.8 °C 1015.8 hPa Calm     85 % 0 mm 0 W/m2
01:05 9.2 °C 6.8 °C 1015.8 hPa Calm   3.2 km/h 85 % 0 mm 0 W/m2
01:10 9.2 °C 6.8 °C 1015.5 hPa Calm     85 % 0 mm 0 W/m2
01:15 9.2 °C 6.8 °C 1015.5 hPa Calm     85 % 0 mm 0 W/m2
01:20 9.2 °C 6.8 °C 1015.5 hPa Calm     85 % 0 mm 0 W/m2
01:25 9.2 °C 6.8 °C 1015.5 hPa Calm     85 % 0 mm 0 W/m2
01:30 9.2 °C 6.8 °C 1015.5 hPa Calm     85 % 0 mm 0 W/m2
01:35 9.2 °C 6.8 °C 1015.5 hPa Calm     85 % 0 mm 0 W/m2
01:40 9.2 °C 6.8 °C 1015.5 hPa Calm     85 % 0 mm 0 W/m2
01:45 9.3 °C 7.1 °C 1015.5 hPa Calm     86 % 0 mm 0 W/m2
01:50 9.3 °C 7.1 °C 1015.1 hPa Calm     86 % 0 mm 0 W/m2
01:55 9.3 °C 7.1 °C 1015.1 hPa Calm     86 % 0 mm 0 W/m2
02:00 9.3 °C 7.1 °C 1015.5 hPa Calm     86 % 0 mm 0 W/m2
02:05 9.3 °C 7.1 °C 1015.5 hPa Calm     86 % 0 mm 0 W/m2
02:10 9.3 °C 7.1 °C 1015.1 hPa Calm     86 % 0 mm 0 W/m2
02:15 9.3 °C 7.1 °C 1015.1 hPa Calm     86 % 0 mm 0 W/m2
02:20 9.3 °C 7.1 °C 1015.1 hPa Calm     86 % 0 mm 0 W/m2
02:25 9.4 °C 7.2 °C 1015.1 hPa Calm     86 % 0 mm 0 W/m2
02:30 9.4 °C 7.2 °C 1015.1 hPa Calm     86 % 0 mm 0 W/m2
02:35 9.4 °C 7.2 °C 1015.1 hPa Calm     86 % 0 mm 0 W/m2
02:40 9.3 °C 7.1 °C 1015.1 hPa Calm     86 % 0 mm 0 W/m2
02:45 9.3 °C 7.1 °C 1015.1 hPa Calm     86 % 0 mm 0 W/m2
02:50 9.3 °C 7.1 °C 1015.1 hPa Calm     86 % 0 mm 0 W/m2
02:55 9.3 °C 7.1 °C 1014.8 hPa Calm     86 % 0 mm 0 W/m2
03:00 9.3 °C 7.1 °C 1014.8 hPa Calm     86 % 0 mm 0 W/m2
03:05 9.3 °C 7.1 °C 1014.8 hPa Calm     86 % 0 mm 0 W/m2
03:10 9.4 °C 7.2 °C 1014.8 hPa Calm     86 % 0 mm 0 W/m2
03:15 9.4 °C 7.2 °C 1014.8 hPa Calm     86 % 0 mm 0 W/m2
03:20 9.4 °C 7.2 °C 1014.8 hPa Calm     86 % 0 mm 0 W/m2
03:25 9.4 °C 7.2 °C 1014.8 hPa Calm     86 % 0 mm 0 W/m2
03:30 9.4 °C 7.2 °C 1014.4 hPa Calm     86 % 0 mm 0 W/m2
03:35 9.4 °C 7.3 °C 1014.4 hPa Calm     87 % 0 mm 0 W/m2
03:40 9.5 °C 7.4 °C 1014.4 hPa Calm     87 % 0 mm 0 W/m2
03:45 9.5 °C 7.4 °C 1014.4 hPa Calm     87 % 0 mm 0 W/m2
03:50 9.4 °C 7.3 °C 1014.4 hPa Calm     87 % 0 mm 0 W/m2
03:55 9.4 °C 7.3 °C 1014.1 hPa Calm     87 % 0 mm 0 W/m2
04:01 9.4 °C 7.5 °C 1014.1 hPa Calm     88 % 0 mm 0 W/m2
04:06 9.4 °C 7.5 °C 1014.1 hPa Calm     88 % 0 mm 0 W/m2
04:11 9.4 °C 7.5 °C 1014.1 hPa Calm     88 % 0 mm 0 W/m2
04:17 9.4 °C 7.5 °C 1014.1 hPa Calm     88 % 0 mm 0 W/m2
04:21 9.3 °C 7.4 °C 1014.1 hPa Calm     88 % 0 mm 0 W/m2
04:24 9.3 °C 7.4 °C 1014.1 hPa Calm     88 % 0 mm 0 W/m2
04:26 9.3 °C 7.4 °C 1014.1 hPa Calm     88 % 0 mm 0 W/m2
04:28 9.3 °C 7.4 °C 1014.1 hPa Calm     88 % 0 mm 0 W/m2
04:32 9.3 °C 7.4 °C 1014.1 hPa Calm     88 % 0 mm 0 W/m2
04:37 9.3 °C 7.4 °C 1014.1 hPa Calm     88 % 0 mm 0 W/m2
04:41 9.3 °C 7.4 °C 1014.1 hPa Calm     88 % 0 mm 0 W/m2
04:46 9.3 °C 7.4 °C 1014.1 hPa Calm     88 % 0 mm 0 W/m2
04:51 9.3 °C 7.4 °C 1014.1 hPa Calm     88 % 0 mm 0 W/m2
04:56 9.2 °C 7.3 °C 1014.1 hPa Calm     88 % 0 mm 0 W/m2
05:01 9.2 °C 7.3 °C 1014.1 hPa Calm     88 % 0 mm 0 W/m2
05:06 9.1 °C 7.2 °C 1013.8 hPa Calm     88 % 0 mm 0 W/m2
05:11 9.1 °C 7.2 °C 1013.8 hPa Calm     88 % 0 mm 0 W/m2
05:16 9 °C 7.1 °C 1013.8 hPa Calm     88 % 0 mm 0 W/m2
05:21 8.8 °C 6.9 °C 1013.8 hPa Calm     88 % 0 mm 0 W/m2
05:26 8.8 °C 6.9 °C 1013.8 hPa Calm     88 % 0 mm 0 W/m2
05:31 8.6 °C 6.7 °C 1013.8 hPa Calm     88 % 0 mm 0 W/m2
05:36 8.5 °C 6.6 °C 1013.8 hPa Calm     88 % 0 mm 0 W/m2
05:41 8.4 °C 6.7 °C 1013.8 hPa Calm     89 % 0 mm 0 W/m2
05:46 8.2 °C 6.5 °C 1013.8 hPa Calm     89 % 0 mm 0 W/m2
05:51 8.2 °C 6.5 °C 1013.8 hPa Calm     89 % 0 mm 0 W/m2
05:56 8.1 °C 6.4 °C 1013.4 hPa Calm     89 % 0 mm 0 W/m2
06:01 8 °C 6.4 °C 1013.8 hPa Calm     90 % 0 mm 0 W/m2
06:06 7.9 °C 6.3 °C 1013.8 hPa Calm     90 % 0 mm 0 W/m2
06:11 7.8 °C 6.3 °C 1013.8 hPa Calm     90 % 0 mm 0 W/m2
06:16 7.8 °C 6.4 °C 1013.8 hPa Calm     91 % 0 mm 0 W/m2
06:21 7.7 °C 6.3 °C 1013.8 hPa Calm     91 % 0 mm 0 W/m2
06:26 7.7 °C 6.3 °C 1013.8 hPa Calm     91 % 0 mm 0 W/m2
06:31 7.7 °C 6.3 °C 1013.8 hPa Calm     91 % 0 mm 0 W/m2
06:36 7.7 °C 6.3 °C 1013.4 hPa Calm     91 % 0 mm 0 W/m2
06:41 7.8 °C 6.6 °C 1013.4 hPa Calm     92 % 0 mm 0 W/m2
06:46 7.8 °C 6.6 °C 1013.4 hPa Calm     92 % 0 mm 0 W/m2
06:51 7.8 °C 6.6 °C 1013.4 hPa Calm     92 % 0 mm 0 W/m2
06:56 7.8 °C 6.6 °C 1013.4 hPa Calm     92 % 0 mm 0 W/m2
07:01 7.7 °C 6.5 °C 1013.4 hPa Calm     92 % 0 mm 0 W/m2
07:06 7.7 °C 6.5 °C 1013.4 hPa Calm     92 % 0 mm 0 W/m2
07:11 7.6 °C 6.2 °C 1013.4 hPa Calm     91 % 0 mm 0 W/m2
07:16 7.4 °C 6 °C 1013.4 hPa Calm     91 % 0 mm 0 W/m2
07:21 7.4 °C 6 °C 1013.4 hPa Calm     91 % 0 mm 0 W/m2
07:26 7.3 °C 6.1 °C 1013.4 hPa Calm     92 % 0 mm 0 W/m2
07:31 7.2 °C 6 °C 1013.8 hPa Calm     92 % 0 mm 0 W/m2
07:36 7.2 °C 6 °C 1013.8 hPa Calm     92 % 0 mm 0 W/m2
07:41 7.3 °C 6.2 °C 1013.8 hPa Calm     93 % 0 mm 0 W/m2
07:46 7.3 °C 6.2 °C 1013.8 hPa Calm     93 % 0 mm 0 W/m2
07:51 7.4 °C 6.3 °C 1013.8 hPa Calm     93 % 0 mm 5 W/m2
07:56 7.4 °C 6.3 °C 1013.8 hPa Calm     93 % 0 mm 7 W/m2
08:02 7.5 °C 6.4 °C 1013.8 hPa Calm     93 % 0 mm 11 W/m2
08:07 7.6 °C 6.6 °C 1013.8 hPa Calm     93 % 0 mm 11 W/m2
08:12 7.7 °C 6.8 °C 1013.8 hPa Calm     94 % 0 mm 16 W/m2
08:17 7.8 °C 6.7 °C 1013.8 hPa Calm     93 % 0 mm 18 W/m2
08:22 7.8 °C 6.7 °C 1014.1 hPa Calm     93 % 0 mm 16 W/m2
08:27 7.9 °C 6.8 °C 1014.1 hPa Calm     93 % 0 mm 21 W/m2
08:32 7.9 °C 6.8 °C 1014.1 hPa Calm     93 % 0 mm 30 W/m2
08:37 7.9 °C 6.8 °C 1014.1 hPa Calm     93 % 0 mm 44 W/m2
08:42 8 °C 6.9 °C 1014.1 hPa Calm     93 % 0 mm 56 W/m2
08:47 8.1 °C 7.1 °C 1014.1 hPa Calm     93 % 0 mm 120 W/m2
08:52 8.3 °C 7.4 °C 1014.1 hPa Calm     94 % 0 mm 146 W/m2
08:57 8.6 °C 7.7 °C 1014.1 hPa Calm     94 % 0 mm 127 W/m2
09:02 8.8 °C 7.7 °C 1014.1 hPa Calm     93 % 0 mm 127 W/m2
09:07 9.1 °C 8 °C 1013.8 hPa Calm     93 % 0 mm 156 W/m2
09:12 9.2 °C 7.9 °C 1014.1 hPa Calm     92 % 0 mm 148 W/m2
09:17 9.6 °C 8.4 °C 1013.8 hPa Calm     92 % 0 mm 162 W/m2
09:22 9.8 °C 8.2 °C 1014.1 hPa Calm     90 % 0 mm 171 W/m2
09:27 10 °C 8.4 °C 1014.1 hPa Calm   1.6 km/h 90 % 0 mm 221 W/m2
09:32 10.3 °C 8.6 °C 1014.1 hPa Calm   1.6 km/h 89 % 0 mm 206 W/m2
09:37 10.5 °C 8.4 °C 1014.1 hPa Calm     87 % 0 mm 195 W/m2
09:42 10.8 °C 8.7 °C 1014.1 hPa Calm     87 % 0 mm 199 W/m2
09:47 11.1 °C 8.7 °C 1013.8 hPa Calm     85 % 0 mm 199 W/m2
09:52 11.2 °C 8.6 °C 1013.8 hPa Calm   1.6 km/h 84 % 0 mm 206 W/m2
09:57 11.3 °C 8.5 °C 1013.8 hPa SE 1.6 km/h 8 km/h 83 % 0 mm 244 W/m2
10:02 11.3 °C 8.5 °C 1013.8 hPa SE 1.6 km/h 8 km/h 83 % 0 mm 139 W/m2
10:07 11.3 °C 8.3 °C 1013.8 hPa Calm   6.4 km/h 82 % 0 mm 141 W/m2
10:12 11.3 °C 8.3 °C 1013.8 hPa East 1.6 km/h 6.4 km/h 82 % 0 mm 146 W/m2
10:17 11.3 °C 8.3 °C 1013.8 hPa Calm   3.2 km/h 82 % 0 mm 134 W/m2
10:22 11.3 °C 8.3 °C 1013.8 hPa Calm   4.8 km/h 82 % 0 mm 128 W/m2
10:27 11.3 °C 8.3 °C 1013.8 hPa East 1.6 km/h 8 km/h 82 % 0 mm 125 W/m2
10:32 11.3 °C 8.3 °C 1013.8 hPa East 1.6 km/h 8 km/h 82 % 0 mm 123 W/m2
10:37 11.2 °C 8.2 °C 1013.8 hPa East 1.6 km/h 6.4 km/h 82 % 0 mm 111 W/m2
10:42 11.2 °C 8.4 °C 1013.8 hPa East 1.6 km/h 8 km/h 83 % 0 mm 113 W/m2
10:47 11.2 °C 8.4 °C 1013.8 hPa ENE 1.6 km/h 8 km/h 83 % 0 mm 107 W/m2
10:52 11.1 °C 8.3 °C 1013.8 hPa ENE 3.2 km/h 9.7 km/h 83 % 0 mm 118 W/m2
10:57 11.2 °C 8.4 °C 1013.8 hPa ENE 1.6 km/h 9.7 km/h 83 % 0 mm 120 W/m2
11:02 11.2 °C 8.4 °C 1013.8 hPa Calm   6.4 km/h 83 % 0 mm 146 W/m2
11:07 11.3 °C 8.5 °C 1013.4 hPa Calm   3.2 km/h 83 % 0 mm 153 W/m2
11:12 11.4 °C 8.4 °C 1013.4 hPa East 1.6 km/h 8 km/h 82 % 0 mm 144 W/m2
11:17 11.4 °C 8.4 °C 1013.4 hPa East 1.6 km/h 8 km/h 82 % 0 mm 158 W/m2
11:22 11.4 °C 8.4 °C 1013.4 hPa East 1.6 km/h 8 km/h 82 % 0 mm 153 W/m2
11:27 11.4 °C 8.4 °C 1013.4 hPa East 1.6 km/h 8 km/h 82 % 0 mm 142 W/m2
11:32 11.6 °C 8.6 °C 1013.4 hPa Calm   4.8 km/h 82 % 0 mm 179 W/m2
11:37 11.7 °C 8.7 °C 1013.4 hPa East 1.6 km/h 8 km/h 82 % 0 mm 190 W/m2
11:42 11.8 °C 8.7 °C 1013.4 hPa East 3.2 km/h 9.7 km/h 81 % 0 mm 185 W/m2
11:47 11.8 °C 8.4 °C 1013.4 hPa East 4.8 km/h 9.7 km/h 80 % 0 mm 179 W/m2
11:52 11.8 °C 8.4 °C 1013.1 hPa East 3.2 km/h 9.7 km/h 80 % 0 mm 174 W/m2
11:57 11.9 °C 8.6 °C 1013.1 hPa East 3.2 km/h 9.7 km/h 80 % 0 mm 178 W/m2
12:02 12 °C 8.4 °C 1013.1 hPa East 4.8 km/h 9.7 km/h 79 % 0 mm 188 W/m2
12:07 12.1 °C 8.6 °C 1013.1 hPa East 3.2 km/h 9.7 km/h 79 % 0 mm 230 W/m2
12:09 12.1 °C 8.6 °C 1013.1 hPa East 3.2 km/h 9.7 km/h 79 % 0 mm 218 W/m2
12:14 12.2 °C 8.8 °C 1013.1 hPa East 3.2 km/h 8 km/h 80 % 0 mm 195 W/m2
12:19 12.4 °C 8.8 °C 1013.1 hPa ESE 3.2 km/h 9.7 km/h 79 % 0 mm 185 W/m2
12:24 12.4 °C 8.5 °C 1013.1 hPa ESE 4.8 km/h 12.9 km/h 77 % 0 mm 186 W/m2
12:29 12.5 °C 8.6 °C 1012.8 hPa ESE 6.4 km/h 12.9 km/h 77 % 0 mm 178 W/m2
12:34 12.5 °C 8.6 °C 1012.8 hPa East 4.8 km/h 12.9 km/h 77 % 0 mm 178 W/m2
12:39 12.6 °C 8.3 °C 1012.8 hPa East 4.8 km/h 11.3 km/h 75 % 0 mm 156 W/m2
12:44 12.6 °C 8.5 °C 1012.8 hPa East 4.8 km/h 11.3 km/h 76 % 0 mm 171 W/m2
12:49 12.6 °C 8.3 °C 1012.8 hPa ESE 4.8 km/h 12.9 km/h 75 % 0 mm 158 W/m2
12:54 12.6 °C 8.3 °C 1012.8 hPa ESE 8 km/h 12.9 km/h 75 % 0 mm 176 W/m2
12:59 12.6 °C 8.3 °C 1012.8 hPa ESE 6.4 km/h 12.9 km/h 75 % 0 mm 176 W/m2
13:00 12.6 °C 8.3 °C 1012.8 hPa ESE 6.4 km/h 12.9 km/h 75 % 0 mm 176 W/m2
13:05 12.6 °C 8.3 °C 1012.8 hPa ESE 6.4 km/h 12.9 km/h 75 % 0 mm 156 W/m2
13:10 12.6 °C 8.3 °C 1012.8 hPa ESE 8 km/h 12.9 km/h 75 % 0 mm 221 W/m2
13:15 12.6 °C 8.3 °C 1012.8 hPa SE 8 km/h 16.1 km/h 75 % 0 mm 199 W/m2
13:20 12.6 °C 8.1 °C 1012.4 hPa SE 9.7 km/h 16.1 km/h 74 % 0 mm 153 W/m2
13:25 12.6 °C 8.1 °C 1012.4 hPa SE 8 km/h 14.5 km/h 74 % 0 mm 174 W/m2
13:30 12.7 °C 8.2 °C 1012.4 hPa SE 8 km/h 12.9 km/h 74 % 0 mm 179 W/m2
13:36 12.8 °C 8.1 °C 1012.4 hPa ESE 6.4 km/h 12.9 km/h 73 % 0 mm 142 W/m2
13:41 12.8 °C 7.9 °C 1012.4 hPa ESE 8 km/h 12.9 km/h 72 % 0 mm 111 W/m2
13:46 12.8 °C 7.9 °C 1012.1 hPa ESE 8 km/h 12.9 km/h 72 % 0 mm 128 W/m2
13:51 12.8 °C 8.1 °C 1012.1 hPa East 4.8 km/h 11.3 km/h 73 % 0 mm 128 W/m2
13:56 12.8 °C 7.9 °C 1012.1 hPa East 4.8 km/h 12.9 km/h 72 % 0 mm 114 W/m2
14:01 12.9 °C 7.9 °C 1012.1 hPa ESE 8 km/h 12.9 km/h 72 % 0 mm 120 W/m2
14:06 12.9 °C 7.9 °C 1011.7 hPa ESE 8 km/h 12.9 km/h 72 % 0 mm 130 W/m2
14:11 12.9 °C 8.2 °C 1011.7 hPa East 6.4 km/h 12.9 km/h 73 % 0 mm 120 W/m2
14:16 12.9 °C 8.2 °C 1011.7 hPa East 6.4 km/h 12.9 km/h 73 % 0 mm 113 W/m2
14:21 12.9 °C 8.2 °C 1011.7 hPa ESE 4.8 km/h 11.3 km/h 73 % 0 mm 84 W/m2
14:26 12.9 °C 7.8 °C 1011.7 hPa ESE 6.4 km/h 14.5 km/h 71 % 0 mm 81 W/m2
14:31 12.9 °C 7.9 °C 1011.7 hPa SE 6.4 km/h 14.5 km/h 72 % 0 mm 72 W/m2
14:36 12.9 °C 8.2 °C 1011.7 hPa ESE 4.8 km/h 11.3 km/h 73 % 0 mm 77 W/m2
14:41 12.9 °C 8.4 °C 1011.7 hPa ESE 6.4 km/h 11.3 km/h 74 % 0 mm 77 W/m2
14:46 12.9 °C 8.6 °C 1011.7 hPa East 4.8 km/h 9.7 km/h 75 % 0 mm 90 W/m2
14:51 12.9 °C 8.6 °C 1011.7 hPa East 4.8 km/h 9.7 km/h 75 % 0 mm 76 W/m2
14:56 12.9 °C 8.6 °C 1011.4 hPa East 4.8 km/h 9.7 km/h 75 % 0 mm 81 W/m2
15:06 12.8 °C 8.5 °C 1011.4 hPa East 4.8 km/h 9.7 km/h 75 % 0 mm 63 W/m2
15:11 12.8 °C 8.1 °C 1011.4 hPa ESE 4.8 km/h 11.3 km/h 73 % 0 mm 53 W/m2
15:16 12.7 °C 7.8 °C 1011.4 hPa ESE 6.4 km/h 12.9 km/h 72 % 0 mm 51 W/m2
15:21 12.8 °C 7.9 °C 1011.4 hPa SE 4.8 km/h 12.9 km/h 72 % 0 mm 56 W/m2
15:26 12.8 °C 8.1 °C 1011.4 hPa SE 4.8 km/h 11.3 km/h 73 % 0 mm 44 W/m2
15:31 12.7 °C 8.2 °C 1011.7 hPa SE 4.8 km/h 11.3 km/h 74 % 0 mm 33 W/m2
15:36 12.7 °C 8.4 °C 1011.4 hPa SE 4.8 km/h 9.7 km/h 75 % 0 mm 33 W/m2
15:41 12.6 °C 8.3 °C 1011.4 hPa ESE 4.8 km/h 9.7 km/h 75 % 0 mm 37 W/m2
15:46 12.6 °C 8.5 °C 1011.4 hPa ESE 4.8 km/h 9.7 km/h 76 % 0 mm 47 W/m2
15:51 12.5 °C 8.4 °C 1011.4 hPa ESE 6.4 km/h 12.9 km/h 76 % 0 mm 51 W/m2
15:56 12.4 °C 8.1 °C 1011.4 hPa ESE 8 km/h 12.9 km/h 75 % 0 mm 39 W/m2
16:01 12.4 °C 8.3 °C 1011.1 hPa ESE 4.8 km/h 12.9 km/h 76 % 0 mm 35 W/m2
16:06 12.4 °C 8.3 °C 1011.1 hPa ESE 4.8 km/h 14.5 km/h 76 % 0 mm 40 W/m2
16:11 12.4 °C 8.3 °C 1011.1 hPa ESE 8 km/h 14.5 km/h 76 % 0 mm 44 W/m2
16:16 12.4 °C 8.3 °C 1011.1 hPa ESE 9.7 km/h 14.5 km/h 76 % 0 mm 49 W/m2
16:21 12.4 °C 8.3 °C 1011.1 hPa SE 9.7 km/h 14.5 km/h 76 % 0 mm 54 W/m2
16:26 12.4 °C 8.3 °C 1011.1 hPa SE 8 km/h 14.5 km/h 76 % 0 mm 49 W/m2
16:31 12.5 °C 8.4 °C 1011.1 hPa SE 6.4 km/h 11.3 km/h 76 % 0 mm 39 W/m2
16:36 12.5 °C 8.4 °C 1011.1 hPa ESE 4.8 km/h 11.3 km/h 76 % 0 mm 26 W/m2
16:41 12.5 °C 8.4 °C 1011.1 hPa ESE 4.8 km/h 11.3 km/h 76 % 0 mm 14 W/m2
16:46 12.5 °C 8.4 °C 1011.1 hPa ESE 4.8 km/h 11.3 km/h 76 % 0 mm 14 W/m2
16:52 12.5 °C 8.4 °C 1011.1 hPa ESE 4.8 km/h 11.3 km/h 76 % 0 mm 16 W/m2
16:57 12.5 °C 8.4 °C 1011.1 hPa ESE 4.8 km/h 11.3 km/h 76 % 0 mm 16 W/m2
17:02 12.5 °C 8.4 °C 1010.7 hPa ESE 4.8 km/h 11.3 km/h 76 % 0 mm 14 W/m2
17:07 12.5 °C 8.4 °C 1010.7 hPa ESE 4.8 km/h 9.7 km/h 76 % 0 mm 16 W/m2
17:12 12.4 °C 8.5 °C 1010.7 hPa ESE 4.8 km/h 9.7 km/h 77 % 0 mm 12 W/m2
17:17 12.4 °C 8.5 °C 1010.7 hPa ESE 4.8 km/h 9.7 km/h 77 % 0 mm 9 W/m2
17:22 12.4 °C 8.5 °C 1010.7 hPa SE 4.8 km/h 11.3 km/h 77 % 0 mm 7 W/m2
17:27 12.4 °C 8.5 °C 1010.7 hPa SE 6.4 km/h 12.9 km/h 77 % 0 mm 9 W/m2
17:32 12.3 °C 8.6 °C 1010.7 hPa SE 8 km/h 14.5 km/h 78 % 0 mm 5 W/m2
17:37 12.3 °C 8.6 °C 1010.7 hPa SE 6.4 km/h 14.5 km/h 78 % 0 mm 0 W/m2
17:42 12.3 °C 8.6 °C 1010.7 hPa ESE 6.4 km/h 12.9 km/h 78 % 0 mm 0 W/m2
17:47 12.2 °C 8.5 °C 1010.7 hPa ESE 4.8 km/h 11.3 km/h 78 % 0 mm 0 W/m2
17:52 12.2 °C 8.5 °C 1010.7 hPa ESE 4.8 km/h 11.3 km/h 78 % 0 mm 0 W/m2
17:57 12.2 °C 8.7 °C 1010.7 hPa ESE 4.8 km/h 9.7 km/h 79 % 0 mm 0 W/m2
18:02 12.2 °C 8.7 °C 1010.7 hPa ESE 6.4 km/h 11.3 km/h 79 % 0 mm 0 W/m2
18:07 12.2 °C 8.7 °C 1010.7 hPa ESE 4.8 km/h 11.3 km/h 79 % 0 mm 0 W/m2
18:12 12.1 °C 8.6 °C 1010.7 hPa ESE 4.8 km/h 11.3 km/h 79 % 0 mm 0 W/m2
18:17 12.1 °C 8.6 °C 1010.7 hPa SE 4.8 km/h 9.7 km/h 79 % 0 mm 0 W/m2
18:22 12.1 °C 8.6 °C 1010.7 hPa SE 4.8 km/h 9.7 km/h 79 % 0 mm 0 W/m2
18:27 12.1 °C 8.6 °C 1010.7 hPa SE 3.2 km/h 9.7 km/h 79 % 0 mm 0 W/m2
18:32 12.1 °C 8.8 °C 1010.4 hPa SE 3.2 km/h 11.3 km/h 80 % 0 mm 0 W/m2
18:37 12.1 °C 8.8 °C 1010.4 hPa SE 3.2 km/h 11.3 km/h 80 % 0 mm 0 W/m2
18:39 12 °C 8.7 °C 1010.4 hPa ESE 4.8 km/h 16.1 km/h 80 % 0 mm 0 W/m2
18:44 12 °C 8.8 °C 1010.4 hPa ESE 8 km/h 16.1 km/h 81 % 0 mm 0 W/m2
18:49 12 °C 8.8 °C 1010.4 hPa ESE 9.7 km/h 17.7 km/h 81 % 0 mm 0 W/m2
18:54 12 °C 8.8 °C 1010.4 hPa SE 9.7 km/h 17.7 km/h 81 % 0 mm 0 W/m2
18:59 12 °C 8.8 °C 1010.4 hPa SE 9.7 km/h 17.7 km/h 81 % 0 mm 0 W/m2
19:04 12 °C 8.8 °C 1010.4 hPa SE 9.7 km/h 17.7 km/h 81 % 0 mm 0 W/m2
19:09 12 °C 9 °C 1010.4 hPa SE 6.4 km/h 19.3 km/h 82 % 0 mm 0 W/m2
19:14 12 °C 9 °C 1010.4 hPa SE 8 km/h 19.3 km/h 82 % 0 mm 0 W/m2
19:19 12 °C 9 °C 1010.4 hPa SE 9.7 km/h 19.3 km/h 82 % 0 mm 0 W/m2
19:24 12 °C 9 °C 1010.7 hPa SE 8 km/h 14.5 km/h 82 % 0 mm 0 W/m2
19:29 12 °C 9.2 °C 1010.4 hPa SE 6.4 km/h 12.9 km/h 83 % 0 mm 0 W/m2
19:34 12 °C 9.2 °C 1010.4 hPa SE 8 km/h 14.5 km/h 83 % 0 mm 0 W/m2
19:39 11.9 °C 9.3 °C 1010.4 hPa ESE 8 km/h 14.5 km/h 84 % 0 mm 0 W/m2
19:44 11.9 °C 9.3 °C 1010.4 hPa SE 8 km/h 14.5 km/h 84 % 0 mm 0 W/m2
19:49 11.8 °C 9.6 °C 1010.4 hPa SE 9.7 km/h 16.1 km/h 86 % 0 mm 0 W/m2
19:54 11.7 °C 9.6 °C 1010.4 hPa SE 9.7 km/h 16.1 km/h 87 % 0 mm 0 W/m2
19:59 11.6 °C 9.7 °C 1010.4 hPa SE 8 km/h 16.1 km/h 88 % 0 mm 0 W/m2
20:04 11.6 °C 9.8 °C 1010.4 hPa SE 6.4 km/h 12.9 km/h 89 % 0 mm 0 W/m2
20:09 11.5 °C 9.9 °C 1010.4 hPa ESE 6.4 km/h 11.3 km/h 90 % 0 mm 0 W/m2
20:14 11.4 °C 10 °C 1010.4 hPa ESE 4.8 km/h 11.3 km/h 91 % 0 mm 0 W/m2
20:19 11.3 °C 9.9 °C 1010.4 hPa East 1.6 km/h 8 km/h 91 % 0 mm 0 W/m2
20:24 11.3 °C 10.1 °C 1010.4 hPa Calm   6.4 km/h 92 % 0 mm 0 W/m2
20:29 11.3 °C 10.1 °C 1010.4 hPa East 1.6 km/h 8 km/h 92 % 0 mm 0 W/m2
20:35 11.2 °C 9.9 °C 1010.4 hPa East 3.2 km/h 9.7 km/h 92 % 0 mm 0 W/m2
20:40 11.2 °C 9.9 °C 1010.4 hPa East 3.2 km/h 9.7 km/h 92 % 0 mm 0 W/m2
20:50 11.2 °C 10.1 °C 1010 hPa East 1.6 km/h 8 km/h 93 % 0 mm 0 W/m2
20:55 11.1 °C 10 °C 1010 hPa East 1.6 km/h 8 km/h 93 % 0 mm 0 W/m2
21:00 11.1 °C 10 °C 1010 hPa East 3.2 km/h 8 km/h 93 % 0 mm 0 W/m2
21:05 11.1 °C 10 °C 1010 hPa ESE 3.2 km/h 8 km/h 93 % 0 mm 0 W/m2
21:10 11.1 °C 10.2 °C 1010 hPa East 1.6 km/h 8 km/h 94 % 0 mm 0 W/m2
21:15 11.1 °C 10.2 °C 1010 hPa East 1.6 km/h 8 km/h 94 % 0 mm 0 W/m2
21:20 11.1 °C 10.2 °C 1010 hPa East 1.6 km/h 8 km/h 94 % 0 mm 0 W/m2
21:25 11.1 °C 10.2 °C 1010 hPa Calm   6.4 km/h 94 % 0 mm 0 W/m2
21:30 11.1 °C 10.2 °C 1010 hPa Calm     94 % 0 mm 0 W/m2
21:35 11.1 °C 10.2 °C 1010 hPa Calm   3.2 km/h 94 % 0 mm 0 W/m2
21:40 11.1 °C 10.2 °C 1010 hPa Calm   3.2 km/h 94 % 0.25 mm 0 W/m2
21:45 11.1 °C 10.3 °C 1010 hPa Calm   1.6 km/h 95 % 0.25 mm 0 W/m2
21:50 11.1 °C 10.3 °C 1010 hPa Calm   1.6 km/h 95 % 0.25 mm 0 W/m2
21:56 11.1 °C 10.3 °C 1009.7 hPa Calm   6.4 km/h 95 % 0.25 mm 0 W/m2
22:01 11 °C 10.2 °C 1009.7 hPa East 1.6 km/h 6.4 km/h 95 % 0.25 mm 0 W/m2
22:06 11 °C 10.2 °C 1009.7 hPa ENE 1.6 km/h 9.7 km/h 95 % 0.25 mm 0 W/m2
22:12 11 °C 10.2 °C 1009.7 hPa East 1.6 km/h 8 km/h 95 % 0.25 mm 0 W/m2
22:17 10.9 °C 10.1 °C 1009.7 hPa East 1.6 km/h 8 km/h 95 % 0.25 mm 0 W/m2
22:27 10.9 °C 10.1 °C 1009.4 hPa Calm   6.4 km/h 95 % 0.51 mm 0 W/m2
22:32 10.9 °C 10.1 °C 1009.4 hPa East 1.6 km/h 9.7 km/h 95 % 0.51 mm 0 W/m2
22:37 10.9 °C 10.1 °C 1009.4 hPa East 3.2 km/h 9.7 km/h 95 % 0.25 mm 0 W/m2
22:42 10.8 °C 10.1 °C 1009.4 hPa East 3.2 km/h 8 km/h 95 % 0.25 mm 0 W/m2
22:47 10.8 °C 10.1 °C 1009.4 hPa East 3.2 km/h 8 km/h 95 % 0.25 mm 0 W/m2
22:52 10.8 °C 10.1 °C 1009.4 hPa East 1.6 km/h 8 km/h 95 % 0.25 mm 0 W/m2
22:57 10.8 °C 10.1 °C 1009 hPa Calm   3.2 km/h 95 % 0.25 mm 0 W/m2
23:02 10.8 °C 10.1 °C 1009 hPa Calm   3.2 km/h 95 % 0.25 mm 0 W/m2
23:07 10.8 °C 10.2 °C 1009 hPa East 1.6 km/h 6.4 km/h 96 % 0.25 mm 0 W/m2
23:12 10.8 °C 10.2 °C 1008.7 hPa East 1.6 km/h 8 km/h 96 % 0.25 mm 0 W/m2
23:17 10.8 °C 10.2 °C 1008.7 hPa East 1.6 km/h 8 km/h 96 % 0.25 mm 0 W/m2
23:22 10.8 °C 10.2 °C 1009 hPa East 1.6 km/h 6.4 km/h 96 % 0.25 mm 0 W/m2
23:27 10.8 °C 10.2 °C 1009 hPa Calm   6.4 km/h 96 % 0 mm 0 W/m2
23:32 10.8 °C 10.2 °C 1009 hPa Calm   3.2 km/h 96 % 0 mm 0 W/m2
23:37 10.8 °C 10.2 °C 1008.7 hPa East 1.6 km/h 3.2 km/h 96 % 0.25 mm 0 W/m2
23:42 10.8 °C 10.2 °C 1008.7 hPa East 1.6 km/h 3.2 km/h 96 % 0.25 mm 0 W/m2
23:47 10.9 °C 10.3 °C 1008.7 hPa East 1.6 km/h 4.8 km/h 96 % 0.25 mm 0 W/m2
23:52 10.9 °C 10.3 °C 1008.7 hPa East 1.6 km/h 6.4 km/h 96 % 0.25 mm 0 W/m2
23:57 10.9 °C 10.3 °C 1008.7 hPa East 1.6 km/h 6.4 km/h 96 % 0.25 mm 0 W/m2
Delerius-Weather
Compliments of Weather Underground - 2.25 mb

Data updates at regular intervals.